Time,TemperatureF,DewpointF,PressureIn,WindDirection,WindDirectionDegrees,WindSpeedMPH,WindSpeedGustMPH,Humidity,HourlyPrecipIn,Conditions,Clouds,dailyrainin,SoftwareType,DateUTC
2013-06-27 00:01:00,68.6,67.1,29.83,WNW,287,0.0,0.0,95,0.02,,-RA,0.00,VWS V14.01,2013-06-27 04:01:00,
2013-06-27 00:06:00,68.6,67.1,29.84,WNW,287,0.0,0.0,95,0.02,,RA,0.00,VWS V14.01,2013-06-27 04:06:00,
2013-06-27 00:11:00,68.7,67.2,29.84,SSW,207,0.0,0.0,95,0.02,,RA,0.00,VWS V14.01,2013-06-27 04:11:00,
2013-06-27 00:16:00,68.7,67.2,29.84,SSW,203,0.0,0.0,95,0.02,,RA,0.00,VWS V14.01,2013-06-27 04:16:00,
2013-06-27 00:21:00,68.6,67.1,29.83,SSW,205,0.0,0.0,95,0.02,,RA,0.00,VWS V14.01,2013-06-27 04:21:00,
2013-06-27 00:26:00,68.7,67.2,29.83,South,184,0.0,0.0,95,0.02,,RA,0.00,VWS V14.01,2013-06-27 04:26:00,
2013-06-27 00:31:00,68.7,67.2,29.83,South,185,0.0,0.0,95,0.01,,OVC110,0.00,VWS V14.01,2013-06-27 04:31:00,
2013-06-27 00:36:00,68.7,67.2,29.83,South,184,0.0,0.0,95,0.01,,OVC110,0.00,VWS V14.01,2013-06-27 04:36:00,
2013-06-27 00:41:00,68.7,67.2,29.82,SSE,159,0.0,0.0,95,0.01,,OVC110,0.00,VWS V14.01,2013-06-27 04:41:00,
2013-06-27 00:46:00,68.8,67.6,29.82,SSE,148,0.0,0.0,96,0.01,,-RA,0.00,VWS V14.01,2013-06-27 04:46:00,
2013-06-27 00:51:00,68.8,67.3,29.82,SW,214,1.0,2.0,95,0.01,,-RA,0.00,VWS V14.01,2013-06-27 04:51:00,
2013-06-27 00:56:00,68.7,67.2,29.82,SW,218,3.0,4.0,95,0.00,,-RA,0.00,VWS V14.01,2013-06-27 04:56:00,
2013-06-27 01:01:00,68.7,67.5,29.82,SW,221,2.0,2.0,96,0.00,,-RA,0.00,VWS V14.01,2013-06-27 05:01:00,
2013-06-27 01:06:00,68.7,67.5,29.81,SSW,212,2.0,3.0,96,0.00,,-RA,0.00,VWS V14.01,2013-06-27 05:06:00,
2013-06-27 01:11:00,68.7,67.5,29.81,SSW,192,0.0,0.0,96,0.00,,-RA,0.00,VWS V14.01,2013-06-27 05:11:00,
2013-06-27 01:16:00,68.6,67.4,29.81,SSW,201,1.0,2.0,96,0.00,,-RA,0.00,VWS V14.01,2013-06-27 05:16:00,
2013-06-27 01:21:00,68.6,67.4,29.80,South,188,0.0,0.0,96,0.00,,-RA,0.00,VWS V14.01,2013-06-27 05:21:00,
2013-06-27 01:26:00,68.5,67.3,29.80,South,188,0.0,0.0,96,0.00,,-RA,0.00,VWS V14.01,2013-06-27 05:26:00,
2013-06-27 01:31:00,68.5,67.3,29.80,SSE,150,0.0,0.0,96,0.00,,-RA,0.00,VWS V14.01,2013-06-27 05:31:00,
2013-06-27 01:36:00,68.6,67.4,29.80,SSE,150,0.0,0.0,96,0.00,,-RA,0.00,VWS V14.01,2013-06-27 05:36:00,
2013-06-27 01:41:00,68.6,67.4,29.80,SSE,149,0.0,0.0,96,0.00,,-RA,0.00,VWS V14.01,2013-06-27 05:41:00,
2013-06-27 01:46:00,68.6,67.4,29.79,East,91,2.0,2.0,96,0.00,,RA,0.00,VWS V14.01,2013-06-27 05:46:00,
2013-06-27 01:51:00,68.7,67.5,29.79,East,96,2.0,3.0,96,0.00,,RA,0.00,VWS V14.01,2013-06-27 05:51:00,
2013-06-27 01:56:00,68.7,67.5,29.79,East,95,2.0,4.0,96,0.00,,RA,0.00,VWS V14.01,2013-06-27 05:56:00,
2013-06-27 02:01:00,68.8,67.6,29.79,ENE,67,2.0,3.0,96,0.00,,RA,0.00,VWS V14.01,2013-06-27 06:01:00,
2013-06-27 02:06:00,68.8,67.6,29.79,East,98,1.0,2.0,96,0.00,,RA,0.00,VWS V14.01,2013-06-27 06:06:00,
2013-06-27 02:11:00,68.8,67.6,29.79,ESE,103,0.0,0.0,96,0.00,,RA,0.00,VWS V14.01,2013-06-27 06:11:00,
2013-06-27 02:16:00,68.8,67.6,29.79,East,91,0.0,2.0,96,0.00,,RA,0.00,VWS V14.01,2013-06-27 06:16:00,
2013-06-27 02:21:00,68.9,67.7,29.79,SE,127,0.0,0.0,96,0.00,,RA,0.00,VWS V14.01,2013-06-27 06:21:00,
2013-06-27 02:26:00,68.9,67.7,29.80,ESE,112,1.0,1.0,96,0.00,,RA,0.00,VWS V14.01,2013-06-27 06:26:00,
2013-06-27 02:31:00,68.9,67.7,29.80,ESE,111,0.0,0.0,96,0.00,,OVC005,0.00,VWS V14.01,2013-06-27 06:31:00,
2013-06-27 02:36:00,68.9,67.7,29.80,ESE,111,0.0,1.0,96,0.00,,OVC005,0.00,VWS V14.01,2013-06-27 06:36:00,
2013-06-27 02:41:00,68.9,67.7,29.80,ESE,121,0.0,0.0,96,0.00,,OVC005,0.00,VWS V14.01,2013-06-27 06:41:00,
2013-06-27 02:46:00,69.0,67.8,29.79,SSW,193,0.0,0.0,96,0.00,,OVC005,0.00,VWS V14.01,2013-06-27 06:46:00,
2013-06-27 02:51:00,69.0,67.8,29.79,SSW,194,2.0,2.0,96,0.00,,OVC005,0.00,VWS V14.01,2013-06-27 06:51:00,
2013-06-27 02:56:00,69.0,67.8,29.79,SSW,199,1.0,2.0,96,0.00,,OVC005,0.00,VWS V14.01,2013-06-27 06:56:00,
2013-06-27 03:01:00,69.0,67.8,29.79,SSW,193,1.0,2.0,96,0.00,,OVC005,0.00,VWS V14.01,2013-06-27 07:01:00,
2013-06-27 03:06:00,69.1,67.9,29.78,SSW,193,0.0,0.0,96,0.00,,OVC005,0.00,VWS V14.01,2013-06-27 07:06:00,
2013-06-27 03:11:00,69.1,67.6,29.78,South,177,1.0,1.0,95,0.00,,OVC005,0.00,VWS V14.01,2013-06-27 07:11:00,
2013-06-27 03:16:00,69.0,67.5,29.77,ESE,119,1.0,3.0,95,0.00,,OVC005,0.00,VWS V14.01,2013-06-27 07:16:00,
2013-06-27 03:21:00,69.1,67.6,29.78,SSE,166,2.0,2.0,95,0.00,,OVC005,0.00,VWS V14.01,2013-06-27 07:21:00,
2013-06-27 03:26:00,69.0,67.5,29.77,SE,132,1.0,1.0,95,0.00,,OVC005,0.00,VWS V14.01,2013-06-27 07:26:00,
2013-06-27 03:31:00,69.0,67.5,29.78,SSW,207,1.0,3.0,95,0.00,,OVC080,0.00,VWS V14.01,2013-06-27 07:31:00,
2013-06-27 03:36:00,69.0,67.5,29.78,South,187,1.0,2.0,95,0.00,,OVC080,0.00,VWS V14.01,2013-06-27 07:36:00,
2013-06-27 03:41:00,69.0,67.5,29.77,South,181,1.0,4.0,95,0.00,,OVC080,0.00,VWS V14.01,2013-06-27 07:41:00,
2013-06-27 03:46:00,68.9,67.4,29.78,SW,232,1.0,4.0,95,0.00,,,0.00,VWS V14.01,2013-06-27 07:46:00,
2013-06-27 03:51:00,69.0,67.5,29.78,SSW,193,2.0,4.0,95,0.00,,,0.00,VWS V14.01,2013-06-27 07:51:00,
2013-06-27 03:56:00,68.9,67.4,29.78,SW,233,2.0,3.0,95,0.00,,,0.00,VWS V14.01,2013-06-27 07:56:00,
2013-06-27 04:01:00,68.9,67.4,29.78,WSW,249,2.0,4.0,95,0.00,,,0.00,VWS V14.01,2013-06-27 08:01:00,
2013-06-27 04:06:00,68.9,67.7,29.78,SW,221,4.0,4.0,96,0.00,,,0.00,VWS V14.01,2013-06-27 08:06:00,
2013-06-27 04:11:00,68.8,67.6,29.78,WSW,239,1.0,6.0,96,0.00,,,0.00,VWS V14.01,2013-06-27 08:11:00,
2013-06-27 04:16:00,68.8,67.6,29.78,South,176,3.0,4.0,96,0.00,,,0.00,VWS V14.01,2013-06-27 08:16:00,
2013-06-27 04:21:00,68.8,67.6,29.78,SW,215,2.0,5.0,96,0.00,,,0.00,VWS V14.01,2013-06-27 08:21:00,
2013-06-27 04:26:00,68.8,67.6,29.78,SW,214,3.0,7.0,96,0.00,,,0.00,VWS V14.01,2013-06-27 08:26:00,
2013-06-27 04:31:00,68.8,67.6,29.78,SSE,148,3.0,6.0,96,0.00,,OVC010,0.00,VWS V14.01,2013-06-27 08:31:00,
2013-06-27 04:36:00,68.8,67.6,29.78,WSW,239,2.0,3.0,96,0.00,,OVC010,0.00,VWS V14.01,2013-06-27 08:36:00,
2013-06-27 04:41:00,68.8,67.6,29.78,SSW,193,2.0,4.0,96,0.00,,OVC010,0.00,VWS V14.01,2013-06-27 08:41:00,
2013-06-27 04:46:00,68.8,67.6,29.78,SW,228,3.0,4.0,96,0.00,,,0.00,VWS V14.01,2013-06-27 08:46:00,
2013-06-27 04:51:00,68.7,67.5,29.78,SW,232,2.0,4.0,96,0.00,,,0.00,VWS V14.01,2013-06-27 08:51:00,
2013-06-27 04:56:00,68.8,67.6,29.78,SW,231,2.0,2.0,96,0.00,,,0.00,VWS V14.01,2013-06-27 08:56:00,
2013-06-27 05:01:00,68.7,67.5,29.78,WSW,240,1.0,3.0,96,0.00,,OVC018,0.00,VWS V14.01,2013-06-27 09:01:00,
2013-06-27 05:06:00,68.8,67.6,29.78,SE,142,2.0,3.0,96,0.00,,OVC018,0.00,VWS V14.01,2013-06-27 09:06:00,
2013-06-27 05:11:00,68.7,67.5,29.78,WSW,256,3.0,5.0,96,0.00,,OVC018,0.00,VWS V14.01,2013-06-27 09:11:00,
2013-06-27 05:17:00,68.7,67.5,29.78,WSW,255,1.0,4.0,96,0.00,,OVC018,0.00,VWS V14.01,2013-06-27 09:17:00,
2013-06-27 05:22:00,68.7,67.5,29.78,WSW,242,0.0,2.0,96,0.00,,OVC018,0.00,VWS V14.01,2013-06-27 09:22:00,
2013-06-27 05:27:00,68.8,67.6,29.78,SW,226,1.0,2.0,96,0.00,,OVC018,0.00,VWS V14.01,2013-06-27 09:27:00,
2013-06-27 05:32:00,68.8,67.6,29.78,WSW,257,2.0,4.0,96,0.00,, +RA,0.00,VWS V14.01,2013-06-27 09:32:00,
2013-06-27 05:37:00,68.7,67.5,29.78,WSW,245,7.0,7.0,96,0.00,, +RA,0.00,VWS V14.01,2013-06-27 09:37:00,
2013-06-27 05:42:00,68.3,66.5,29.78,SW,229,7.0,10.0,94,0.01,, +RA,0.01,VWS V14.01,2013-06-27 09:42:00,
2013-06-27 05:47:00,68.0,66.2,29.78,WSW,251,1.0,7.0,94,0.02,, +RA,0.02,VWS V14.01,2013-06-27 09:47:00,
2013-06-27 05:52:00,67.7,65.9,29.78,West,273,1.0,5.0,94,0.02,, +RA,0.02,VWS V14.01,2013-06-27 09:52:00,
2013-06-27 05:57:00,67.4,65.9,29.78,West,270,5.0,7.0,95,0.03,, +RA,0.03,VWS V14.01,2013-06-27 09:57:00,
2013-06-27 06:02:00,67.1,65.6,29.78,WSW,257,3.0,6.0,95,0.04,,RA,0.04,VWS V14.01,2013-06-27 10:02:00,
2013-06-27 06:07:00,66.9,65.4,29.78,West,260,3.0,7.0,95,0.06,,RA,0.06,VWS V14.01,2013-06-27 10:07:00,
2013-06-27 06:12:00,66.7,65.5,29.78,West,277,2.0,4.0,96,0.09,,RA,0.09,VWS V14.01,2013-06-27 10:12:00,
2013-06-27 06:17:00,66.6,65.4,29.78,SW,217,2.0,5.0,96,0.12,,RA,0.12,VWS V14.01,2013-06-27 10:17:00,
2013-06-27 06:22:00,66.5,65.3,29.78,WSW,240,1.0,3.0,96,0.15,,RA,0.15,VWS V14.01,2013-06-27 10:22:00,
2013-06-27 06:26:00,66.4,65.2,29.78,SSW,199,1.0,2.0,96,0.16,,RA,0.16,VWS V14.01,2013-06-27 10:26:00,
2013-06-27 06:31:00,66.4,65.5,29.78,SSW,212,2.0,2.0,97,0.17,,-RA,0.17,VWS V14.01,2013-06-27 10:31:00,
2013-06-27 06:36:00,66.4,65.5,29.78,SSW,212,2.0,2.0,97,0.17,,-RA,0.17,VWS V14.01,2013-06-27 10:36:00,
2013-06-27 06:41:00,66.4,65.5,29.78,SW,215,1.0,2.0,97,0.17,,-RA,0.17,VWS V14.01,2013-06-27 10:41:00,
2013-06-27 06:46:00,66.4,65.5,29.79,SSW,212,2.0,3.0,97,0.17,,RA,0.18,VWS V14.01,2013-06-27 10:46:00,
2013-06-27 06:51:00,66.3,65.1,29.79,SW,229,1.0,3.0,96,0.16,,RA,0.18,VWS V14.01,2013-06-27 10:51:00,
2013-06-27 06:56:00,66.3,65.4,29.79,SW,214,2.0,3.0,97,0.16,,RA,0.19,VWS V14.01,2013-06-27 10:56:00,
2013-06-27 06:57:00,66.3,65.4,29.79,SW,228,2.0,2.0,97,0.16,,RA,0.19,VWS V14.01,2013-06-27 10:57:00,
2013-06-27 07:02:00,66.3,65.4,29.79,SW,224,3.0,3.0,97,0.16,,RA,0.20,VWS V14.01,2013-06-27 11:02:00,
2013-06-27 07:07:00,66.4,65.5,29.79,SW,226,2.0,2.0,97,0.15,,RA,0.21,VWS V14.01,2013-06-27 11:07:00,
2013-06-27 07:12:00,66.3,65.4,29.79,SW,231,2.0,3.0,97,0.18,,RA,0.26,VWS V14.01,2013-06-27 11:12:00,
2013-06-27 07:17:00,66.4,65.5,29.78,SSE,153,2.0,3.0,97,0.22,,RA,0.33,VWS V14.01,2013-06-27 11:17:00,
2013-06-27 07:22:00,66.4,65.5,29.78,SSE,152,3.0,4.0,97,0.21,,RA,0.36,VWS V14.01,2013-06-27 11:22:00,
2013-06-27 07:27:00,66.4,65.5,29.78,SW,235,3.0,3.0,97,0.20,,RA,0.36,VWS V14.01,2013-06-27 11:27:00,
2013-06-27 07:32:00,66.4,65.5,29.78,SSE,156,3.0,4.0,97,0.19,,-RA,0.36,VWS V14.01,2013-06-27 11:32:00,
2013-06-27 07:37:00,66.4,65.5,29.78,SW,217,0.0,3.0,97,0.19,,-RA,0.36,VWS V14.01,2013-06-27 11:37:00,
2013-06-27 07:42:00,66.5,65.6,29.78,SW,224,1.0,3.0,97,0.19,,-RA,0.36,VWS V14.01,2013-06-27 11:42:00,
2013-06-27 07:47:00,66.4,65.5,29.78,SW,221,1.0,4.0,97,0.19,,OVC022,0.36,VWS V14.01,2013-06-27 11:47:00,
2013-06-27 07:52:00,66.5,65.6,29.78,SSW,200,1.0,2.0,97,0.18,,OVC022,0.36,VWS V14.01,2013-06-27 11:52:00,
2013-06-27 07:57:00,66.5,65.6,29.78,SW,236,1.0,3.0,97,0.17,,OVC022,0.36,VWS V14.01,2013-06-27 11:57:00,
2013-06-27 08:02:00,66.6,65.7,29.78,SE,134,0.0,1.0,97,0.17,,,0.36,VWS V14.01,2013-06-27 12:02:00,
2013-06-27 08:07:00,66.6,65.7,29.78,SW,214,0.0,1.0,97,0.16,,,0.36,VWS V14.01,2013-06-27 12:07:00,
2013-06-27 08:12:00,66.7,65.8,29.78,WSW,255,1.0,2.0,97,0.11,,,0.36,VWS V14.01,2013-06-27 12:12:00,
2013-06-27 08:17:00,66.9,66.0,29.78,SW,219,2.0,2.0,97,0.04,,,0.36,VWS V14.01,2013-06-27 12:17:00,
2013-06-27 08:22:00,67.0,66.1,29.78,South,191,0.0,2.0,97,0.01,,,0.36,VWS V14.01,2013-06-27 12:22:00,
2013-06-27 08:27:00,67.2,66.3,29.78,WSW,240,1.0,4.0,97,0.00,,,0.36,VWS V14.01,2013-06-27 12:27:00,
2013-06-27 08:32:00,67.3,66.1,29.78,WNW,286,0.0,2.0,96,0.00,,,0.36,VWS V14.01,2013-06-27 12:32:00,
2013-06-27 08:37:00,67.3,66.1,29.78,SW,219,4.0,4.0,96,0.00,,,0.36,VWS V14.01,2013-06-27 12:37:00,
2013-06-27 08:42:00,67.3,66.1,29.78,SSW,193,4.0,7.0,96,0.01,,,0.37,VWS V14.01,2013-06-27 12:42:00,
2013-06-27 08:47:00,67.4,66.2,29.78,WSW,238,6.0,6.0,96,0.01,,,0.37,VWS V14.01,2013-06-27 12:47:00,
2013-06-27 08:52:00,67.4,66.2,29.78,SW,228,4.0,6.0,96,0.01,,,0.37,VWS V14.01,2013-06-27 12:52:00,
2013-06-27 09:00:00,67.5,66.3,29.78,WSW,248,3.0,4.0,96,0.01,,,0.37,VWS V14.01,2013-06-27 13:00:00,
2013-06-27 09:05:00,67.6,66.4,29.78,WSW,238,3.0,4.0,96,0.01,,,0.37,VWS V14.01,2013-06-27 13:05:00,
2013-06-27 09:10:00,67.7,66.5,29.78,WSW,249,2.0,4.0,96,0.01,,,0.37,VWS V14.01,2013-06-27 13:10:00,
2013-06-27 09:15:00,67.9,67.0,29.78,WSW,257,5.0,5.0,97,0.01,,,0.37,VWS V14.01,2013-06-27 13:15:00,
2013-06-27 09:20:00,67.9,66.7,29.78,SW,233,3.0,8.0,96,0.01,,,0.37,VWS V14.01,2013-06-27 13:20:00,
2013-06-27 09:25:00,67.9,67.0,29.78,SW,214,5.0,8.0,97,0.01,,,0.37,VWS V14.01,2013-06-27 13:25:00,
2013-06-27 09:30:00,68.0,67.1,29.77,WSW,251,2.0,5.0,97,0.01,,,0.37,VWS V14.01,2013-06-27 13:30:00,
2013-06-27 09:35:00,68.3,67.4,29.78,West,269,0.0,2.0,97,0.01,,,0.37,VWS V14.01,2013-06-27 13:35:00,
2013-06-27 09:40:00,68.4,67.5,29.78,West,266,4.0,4.0,97,0.00,,,0.37,VWS V14.01,2013-06-27 13:40:00,
2013-06-27 09:45:00,68.5,67.6,29.78,WSW,241,0.0,6.0,97,0.00,,,0.37,VWS V14.01,2013-06-27 13:45:00,
2013-06-27 09:50:00,68.7,67.8,29.78,SSW,200,2.0,6.0,97,0.00,,,0.37,VWS V14.01,2013-06-27 13:50:00,
2013-06-27 09:55:00,68.8,67.6,29.77,WSW,256,2.0,4.0,96,0.00,,,0.37,VWS V14.01,2013-06-27 13:55:00,
2013-06-27 10:00:00,69.0,67.8,29.77,WSW,248,2.0,4.0,96,0.00,,,0.37,VWS V14.01,2013-06-27 14:00:00,
2013-06-27 10:05:00,69.1,67.9,29.78,SW,221,1.0,5.0,96,0.00,,,0.37,VWS V14.01,2013-06-27 14:05:00,
2013-06-27 10:10:00,69.3,68.1,29.77,WSW,257,4.0,4.0,96,0.00,,,0.37,VWS V14.01,2013-06-27 14:10:00,
2013-06-27 10:15:00,69.6,68.4,29.77,SSW,196,1.0,3.0,96,0.00,,,0.37,VWS V14.01,2013-06-27 14:15:00,
2013-06-27 10:20:00,69.6,68.1,29.77,WSW,246,3.0,7.0,95,0.00,,,0.37,VWS V14.01,2013-06-27 14:20:00,
2013-06-27 10:25:00,69.8,68.3,29.77,West,264,3.0,4.0,95,0.00,,,0.37,VWS V14.01,2013-06-27 14:25:00,
2013-06-27 10:30:00,70.1,68.6,29.77,West,259,4.0,6.0,95,0.00,,,0.37,VWS V14.01,2013-06-27 14:30:00,
2013-06-27 10:35:00,70.3,68.5,29.77,West,266,1.0,5.0,94,0.00,,OVC007,0.37,VWS V14.01,2013-06-27 14:35:00,
2013-06-27 10:40:00,70.6,68.8,29.77,WNW,291,0.0,4.0,94,0.00,,OVC007,0.37,VWS V14.01,2013-06-27 14:40:00,
2013-06-27 10:45:00,70.8,68.7,29.77,West,266,3.0,5.0,93,0.00,,OVC007,0.37,VWS V14.01,2013-06-27 14:45:00,
2013-06-27 10:50:00,71.0,68.9,29.77,SW,228,2.0,4.0,93,0.00,,OVC007,0.37,VWS V14.01,2013-06-27 14:50:00,
2013-06-27 10:55:00,71.2,68.8,29.77,NW,317,0.0,4.0,92,0.00,,OVC007,0.37,VWS V14.01,2013-06-27 14:55:00,
2013-06-27 11:00:00,71.4,69.0,29.77,West,259,2.0,5.0,92,0.00,,OVC007,0.37,VWS V14.01,2013-06-27 15:00:00,
2013-06-27 11:05:00,71.4,68.6,29.77,WNW,293,4.0,8.0,91,0.00,,OVC007,0.37,VWS V14.01,2013-06-27 15:05:00,
2013-06-27 11:10:00,71.4,68.6,29.77,West,274,4.0,6.0,91,0.00,,OVC007,0.37,VWS V14.01,2013-06-27 15:10:00,
2013-06-27 11:15:00,71.5,69.1,29.77,WSW,241,2.0,6.0,92,0.00,,OVC007,0.37,VWS V14.01,2013-06-27 15:15:00,
2013-06-27 11:20:00,71.6,68.8,29.77,West,267,1.0,6.0,91,0.00,,OVC007,0.37,VWS V14.01,2013-06-27 15:20:00,
2013-06-27 11:25:00,71.8,69.0,29.77,West,278,2.0,6.0,91,0.00,,OVC007,0.37,VWS V14.01,2013-06-27 15:25:00,
2013-06-27 11:30:00,71.9,68.8,29.77,WSW,252,5.0,6.0,90,0.00,,OVC007,0.37,VWS V14.01,2013-06-27 15:30:00,
2013-06-27 11:35:00,71.9,69.1,29.77,WSW,257,4.0,6.0,91,0.00,,OVC009,0.37,VWS V14.01,2013-06-27 15:35:00,
2013-06-27 11:40:00,72.1,69.3,29.77,West,263,0.0,7.0,91,0.00,,OVC009,0.37,VWS V14.01,2013-06-27 15:40:00,
2013-06-27 11:45:00,72.4,69.3,29.77,WSW,249,2.0,5.0,90,0.00,,OVC009,0.37,VWS V14.01,2013-06-27 15:45:00,
2013-06-27 11:50:00,72.3,68.9,29.77,SSW,211,4.0,8.0,89,0.00,,OVC009,0.37,VWS V14.01,2013-06-27 15:50:00,
2013-06-27 11:55:00,72.4,69.3,29.77,West,266,2.0,4.0,90,0.00,,OVC009,0.37,VWS V14.01,2013-06-27 15:55:00,
2013-06-27 12:00:00,72.6,69.5,29.77,WSW,250,0.0,6.0,90,0.00,,OVC009,0.37,VWS V14.01,2013-06-27 16:00:00,
2013-06-27 12:05:00,72.9,69.5,29.77,SSW,207,5.0,8.0,89,0.00,,OVC009,0.37,VWS V14.01,2013-06-27 16:05:00,
2013-06-27 12:10:00,73.1,69.7,29.77,SSW,201,3.0,7.0,89,0.00,,OVC009,0.37,VWS V14.01,2013-06-27 16:10:00,
2013-06-27 12:15:00,72.7,69.3,29.77,SW,227,3.0,8.0,89,0.00,,OVC009,0.37,VWS V14.01,2013-06-27 16:15:00,
2013-06-27 12:20:00,72.7,69.6,29.77,West,266,5.0,8.0,90,0.00,,OVC009,0.37,VWS V14.01,2013-06-27 16:20:00,
2013-06-27 12:25:00,72.5,69.4,29.77,WSW,239,7.0,7.0,90,0.00,,OVC009,0.37,VWS V14.01,2013-06-27 16:25:00,
2013-06-27 12:30:00,72.4,69.3,29.77,WNW,285,3.0,7.0,90,0.00,,OVC009,0.37,VWS V14.01,2013-06-27 16:30:00,
2013-06-27 12:35:00,72.5,69.4,29.77,WNW,284,0.0,4.0,90,0.00,,OVC009,0.37,VWS V14.01,2013-06-27 16:35:00,
2013-06-27 12:40:00,72.7,69.6,29.77,WSW,238,6.0,6.0,90,0.00,,OVC009,0.37,VWS V14.01,2013-06-27 16:40:00,
2013-06-27 12:45:00,72.7,69.3,29.77,West,280,5.0,8.0,89,0.00,,OVC009,0.37,VWS V14.01,2013-06-27 16:45:00,
2013-06-27 12:50:00,73.0,69.6,29.77,WSW,253,3.0,5.0,89,0.00,,OVC021,0.37,VWS V14.01,2013-06-27 16:50:00,
2013-06-27 12:55:00,73.4,70.0,29.77,WSW,242,2.0,5.0,89,0.00,,OVC021,0.37,VWS V14.01,2013-06-27 16:55:00,
2013-06-27 13:00:00,74.0,70.2,29.77,West,264,5.0,5.0,88,0.00,,OVC021,0.37,VWS V14.01,2013-06-27 17:00:00,
2013-06-27 13:05:00,74.3,70.2,29.77,South,188,2.0,5.0,87,0.00,,OVC021,0.37,VWS V14.01,2013-06-27 17:05:00,
2013-06-27 13:10:00,74.6,70.1,29.77,WSW,252,1.0,4.0,86,0.00,,OVC021,0.37,VWS V14.01,2013-06-27 17:10:00,
2013-06-27 13:15:00,74.9,69.7,29.77,SW,232,3.0,7.0,84,0.00,,OVC021,0.37,VWS V14.01,2013-06-27 17:15:00,
2013-06-27 13:20:00,75.2,70.4,29.77,WSW,245,4.0,6.0,85,0.00,,OVC038,0.37,VWS V14.01,2013-06-27 17:20:00,
2013-06-27 13:25:00,75.3,70.1,29.77,SSW,207,3.0,4.0,84,0.00,,OVC038,0.37,VWS V14.01,2013-06-27 17:25:00,
2013-06-27 13:30:00,75.9,70.4,29.76,West,270,3.0,4.0,83,0.00,,OVC038,0.37,VWS V14.01,2013-06-27 17:30:00,
2013-06-27 13:35:00,76.1,70.6,29.76,WNW,293,2.0,6.0,83,0.00,,OVC050,0.37,VWS V14.01,2013-06-27 17:35:00,
2013-06-27 13:40:00,76.0,70.5,29.76,SW,214,1.0,6.0,83,0.00,,OVC050,0.37,VWS V14.01,2013-06-27 17:40:00,
2013-06-27 13:45:00,76.0,70.8,29.76,WSW,257,2.0,4.0,84,0.00,,OVC050,0.37,VWS V14.01,2013-06-27 17:45:00,
2013-06-27 13:50:00,76.2,70.7,29.76,WSW,252,2.0,6.0,83,0.00,,OVC050,0.37,VWS V14.01,2013-06-27 17:50:00,
2013-06-27 13:55:00,77.0,71.8,29.76,West,260,2.0,5.0,84,0.00,,OVC050,0.37,VWS V14.01,2013-06-27 17:55:00,
2013-06-27 14:00:00,78.3,72.4,29.76,SSW,203,4.0,4.0,82,0.00,,OVC050,0.37,VWS V14.01,2013-06-27 18:00:00,
2013-06-27 14:05:00,78.5,71.4,29.76,WNW,286,4.0,5.0,79,0.00,,BKN050,0.37,VWS V14.01,2013-06-27 18:05:00,
2013-06-27 14:10:00,78.3,70.9,29.75,NW,310,0.0,5.0,78,0.00,,BKN050,0.37,VWS V14.01,2013-06-27 18:10:00,
2013-06-27 14:15:00,78.6,71.2,29.75,SW,229,4.0,5.0,78,0.00,,BKN050,0.37,VWS V14.01,2013-06-27 18:15:00,
2013-06-27 14:20:00,78.9,71.5,29.75,SW,233,0.0,5.0,78,0.00,,BKN050,0.37,VWS V14.01,2013-06-27 18:20:00,
2013-06-27 14:25:00,79.2,71.4,29.75,WSW,248,3.0,5.0,77,0.00,,BKN050,0.37,VWS V14.01,2013-06-27 18:25:00,
2013-06-27 14:30:00,80.2,72.3,29.75,WNW,293,1.0,5.0,77,0.00,,BKN050,0.37,VWS V14.01,2013-06-27 18:30:00,
2013-06-27 14:35:00,80.6,70.3,29.75,NW,305,5.0,8.0,71,0.00,,BKN050,0.37,VWS V14.01,2013-06-27 18:35:00,
2013-06-27 14:40:00,81.1,70.8,29.75,WSW,255,2.0,6.0,71,0.00,,BKN050,0.37,VWS V14.01,2013-06-27 18:40:00,
2013-06-27 14:45:00,81.0,71.1,29.75,West,273,1.0,7.0,72,0.00,,BKN050,0.37,VWS V14.01,2013-06-27 18:45:00,
2013-06-27 14:50:00,81.2,70.5,29.75,WSW,248,2.0,8.0,70,0.00,,OVC044,0.37,VWS V14.01,2013-06-27 18:50:00,
2013-06-27 14:55:00,81.2,70.5,29.75,West,269,3.0,9.0,70,0.00,,OVC044,0.37,VWS V14.01,2013-06-27 18:55:00,
2013-06-27 15:00:00,81.6,71.3,29.74,West,260,7.0,9.0,71,0.00,,OVC044,0.37,VWS V14.01,2013-06-27 19:00:00,
2013-06-27 15:05:00,81.4,70.3,29.74,WSW,255,2.0,7.0,69,0.00,,OVC044,0.37,VWS V14.01,2013-06-27 19:05:00,
2013-06-27 15:10:00,81.7,71.0,29.75,WSW,245,4.0,7.0,70,0.00,,OVC044,0.37,VWS V14.01,2013-06-27 19:10:00,
2013-06-27 15:15:00,81.6,70.9,29.74,SW,224,3.0,8.0,70,0.00,,OVC044,0.37,VWS V14.01,2013-06-27 19:15:00,
2013-06-27 15:20:00,81.5,71.2,29.75,West,278,2.0,8.0,71,0.00,,OVC044,0.37,VWS V14.01,2013-06-27 19:20:00,
2013-06-27 15:25:00,81.2,70.5,29.75,SSW,210,6.0,6.0,70,0.00,,OVC044,0.37,VWS V14.01,2013-06-27 19:25:00,
2013-06-27 15:30:00,80.9,70.2,29.74,WSW,250,8.0,8.0,70,0.00,,OVC044,0.37,VWS V14.01,2013-06-27 19:30:00,
2013-06-27 15:35:00,80.7,70.4,29.75,WSW,254,10.0,10.0,71,0.00,,BKN048,0.37,VWS V14.01,2013-06-27 19:35:00,
2013-06-27 15:40:00,80.6,70.3,29.74,WNW,283,8.0,10.0,71,0.00,,BKN048,0.37,VWS V14.01,2013-06-27 19:40:00,
2013-06-27 15:45:00,80.6,71.2,29.74,West,266,4.0,9.0,73,0.00,,BKN048,0.37,VWS V14.01,2013-06-27 19:45:00,
2013-06-27 15:50:00,81.1,72.0,29.74,West,267,5.0,6.0,74,0.00,,OVC070,0.37,VWS V14.01,2013-06-27 19:50:00,
2013-06-27 15:55:00,81.8,71.5,29.74,West,260,4.0,10.0,71,0.00,,OVC070,0.37,VWS V14.01,2013-06-27 19:55:00,
2013-06-27 16:00:00,81.5,71.2,29.74,SW,226,3.0,9.0,71,0.00,,OVC070,0.37,VWS V14.01,2013-06-27 20:00:00,
2013-06-27 16:05:00,81.1,71.2,29.74,SW,236,5.0,8.0,72,0.00,,-RA,0.37,VWS V14.01,2013-06-27 20:05:00,
2013-06-27 16:10:00,80.9,71.8,29.73,West,266,7.0,10.0,74,0.00,,-RA,0.37,VWS V14.01,2013-06-27 20:10:00,
2013-06-27 16:15:00,80.7,71.7,29.73,West,273,4.0,11.0,74,0.00,,-RA,0.37,VWS V14.01,2013-06-27 20:15:00,
2013-06-27 16:20:00,81.0,71.1,29.73,WSW,239,3.0,9.0,72,0.00,,-RA,0.37,VWS V14.01,2013-06-27 20:20:00,
2013-06-27 16:25:00,81.2,71.7,29.73,SW,232,4.0,7.0,73,0.00,,-RA,0.37,VWS V14.01,2013-06-27 20:25:00,
2013-06-27 16:30:00,81.7,71.4,29.72,WSW,250,2.0,6.0,71,0.00,,-RA,0.37,VWS V14.01,2013-06-27 20:30:00,
2013-06-27 16:35:00,81.7,71.4,29.73,WSW,253,4.0,5.0,71,0.00,,OVC110,0.37,VWS V14.01,2013-06-27 20:35:00,
2013-06-27 16:40:00,81.6,71.3,29.73,West,267,5.0,6.0,71,0.00,,OVC110,0.37,VWS V14.01,2013-06-27 20:40:00,
2013-06-27 16:45:00,81.8,71.1,29.73,WNW,286,1.0,6.0,70,0.00,,OVC110,0.37,VWS V14.01,2013-06-27 20:45:00,
2013-06-27 16:51:00,82.7,71.9,29.72,NW,317,3.0,4.0,70,0.00,,BKN070,0.37,VWS V14.01,2013-06-27 20:51:00,
2013-06-27 16:56:00,83.0,71.4,29.72,NW,307,6.0,7.0,68,0.00,,BKN070,0.37,VWS V14.01,2013-06-27 20:56:00,
2013-06-27 17:01:00,83.0,70.9,29.72,West,259,8.0,8.0,67,0.00,,OVC090,0.37,VWS V14.01,2013-06-27 21:01:00,
2013-06-27 17:06:00,83.4,69.9,29.71,WNW,293,8.0,12.0,64,0.00,,OVC090,0.37,VWS V14.01,2013-06-27 21:06:00,
2013-06-27 17:11:00,83.8,71.2,29.71,WNW,285,4.0,9.0,66,0.00,,OVC090,0.37,VWS V14.01,2013-06-27 21:11:00,
2013-06-27 17:16:00,84.2,70.2,29.71,West,272,5.0,12.0,63,0.00,,OVC090,0.37,VWS V14.01,2013-06-27 21:16:00,
2013-06-27 17:21:00,83.4,70.4,29.71,WNW,285,5.0,10.0,65,0.00,,OVC090,0.37,VWS V14.01,2013-06-27 21:21:00,
2013-06-27 17:26:00,83.0,70.5,29.71,West,263,5.0,7.0,66,0.00,,OVC090,0.37,VWS V14.01,2013-06-27 21:26:00,
2013-06-27 17:31:00,82.8,71.2,29.71,WSW,248,4.0,7.0,68,0.00,,SCT060,0.37,VWS V14.01,2013-06-27 21:31:00,
2013-06-27 17:36:00,82.9,71.7,29.71,WSW,249,5.0,9.0,69,0.00,,SCT060,0.37,VWS V14.01,2013-06-27 21:36:00,
2013-06-27 17:42:00,83.7,71.6,29.71,NW,320,3.0,12.0,67,0.00,,SCT060,0.37,VWS V14.01,2013-06-27 21:42:00,
2013-06-27 17:47:00,84.1,72.0,29.70,WNW,284,3.0,6.0,67,0.00,,SCT050,0.37,VWS V14.01,2013-06-27 21:47:00,
2013-06-27 17:52:00,84.4,71.4,29.70,West,262,3.0,10.0,65,0.00,,SCT050,0.37,VWS V14.01,2013-06-27 21:52:00,
2013-06-27 17:57:00,84.7,70.2,29.70,WSW,257,13.0,13.0,62,0.00,,SCT050,0.37,VWS V14.01,2013-06-27 21:57:00,
2013-06-27 18:02:00,84.3,69.9,29.70,WNW,295,7.0,11.0,62,0.00,,SCT046,0.37,VWS V14.01,2013-06-27 22:02:00,
2013-06-27 18:07:00,84.3,69.9,29.70,WSW,238,13.0,18.0,62,0.00,,SCT046,0.37,VWS V14.01,2013-06-27 22:07:00,
2013-06-27 18:12:00,84.2,70.2,29.70,West,263,3.0,10.0,63,0.00,,SCT046,0.37,VWS V14.01,2013-06-27 22:12:00,
2013-06-27 18:18:00,84.3,68.9,29.70,WNW,285,7.0,17.0,60,0.00,,SCT046,0.37,VWS V14.01,2013-06-27 22:18:00,
2013-06-27 18:23:00,84.5,69.1,29.70,WNW,288,10.0,16.0,60,0.00,,SCT046,0.37,VWS V14.01,2013-06-27 22:23:00,
2013-06-27 18:28:00,84.4,69.5,29.70,WNW,295,6.0,14.0,61,0.00,,SCT046,0.37,VWS V14.01,2013-06-27 22:28:00,
2013-06-27 18:33:00,84.5,69.6,29.70,West,274,8.0,16.0,61,0.00,,SCT048,0.37,VWS V14.01,2013-06-27 22:33:00,
2013-06-27 18:38:00,84.0,69.1,29.70,West,278,6.0,16.0,61,0.00,,SCT048,0.37,VWS V14.01,2013-06-27 22:38:00,
2013-06-27 18:43:00,83.9,69.5,29.70,WNW,301,5.0,12.0,62,0.00,,SCT048,0.37,VWS V14.01,2013-06-27 22:43:00,
2013-06-27 18:48:00,84.2,69.3,29.70,West,266,4.0,12.0,61,0.00,,BKN080,0.37,VWS V14.01,2013-06-27 22:48:00,
2013-06-27 18:54:00,84.2,69.8,29.70,West,270,8.0,10.0,62,0.00,,BKN080,0.37,VWS V14.01,2013-06-27 22:54:00,
2013-06-27 18:59:00,84.2,69.3,29.70,WNW,297,5.0,12.0,61,0.00,,BKN080,0.37,VWS V14.01,2013-06-27 22:59:00,
2013-06-27 19:04:00,84.2,69.8,29.70,WSW,255,9.0,12.0,62,0.00,,SCT043,0.37,VWS V14.01,2013-06-27 23:04:00,
2013-06-27 19:09:00,84.0,69.6,29.70,WNW,298,11.0,12.0,62,0.00,,SCT043,0.37,VWS V14.01,2013-06-27 23:09:00,
2013-06-27 19:14:00,83.8,69.4,29.70,WNW,290,4.0,11.0,62,0.00,,SCT043,0.37,VWS V14.01,2013-06-27 23:14:00,
2013-06-27 19:19:00,83.3,68.9,29.70,West,266,9.0,16.0,62,0.00,,SCT043,0.37,VWS V14.01,2013-06-27 23:19:00,
2013-06-27 19:24:00,82.8,68.5,29.71,WNW,301,4.0,11.0,62,0.00,,SCT043,0.37,VWS V14.01,2013-06-27 23:24:00,
2013-06-27 19:29:00,82.5,68.2,29.70,West,281,7.0,13.0,62,0.00,,SCT043,0.37,VWS V14.01,2013-06-27 23:29:00,
2013-06-27 19:34:00,82.4,68.1,29.71,WNW,285,6.0,11.0,62,0.00,,CLR,0.37,VWS V14.01,2013-06-27 23:34:00,
2013-06-27 19:39:00,82.3,68.0,29.70,WNW,290,6.0,8.0,62,0.00,,CLR,0.37,VWS V14.01,2013-06-27 23:39:00,
2013-06-27 19:44:00,82.3,68.5,29.70,WNW,298,4.0,6.0,63,0.00,,CLR,0.37,VWS V14.01,2013-06-27 23:44:00,
2013-06-27 19:49:00,82.6,68.3,29.71,WNW,283,8.0,9.0,62,0.00,,CLR,0.37,VWS V14.01,2013-06-27 23:49:00,
2013-06-27 19:54:00,82.9,68.6,29.71,WNW,284,9.0,10.0,62,0.00,,CLR,0.37,VWS V14.01,2013-06-27 23:54:00,
2013-06-27 19:59:00,83.0,68.7,29.71,WNW,297,6.0,12.0,62,0.00,,CLR,0.37,VWS V14.01,2013-06-27 23:59:00,
2013-06-27 20:04:00,83.0,69.1,29.71,WNW,296,4.0,7.0,63,0.00,,CLR,0.37,VWS V14.01,2013-06-28 00:04:00,
2013-06-27 20:09:00,82.9,69.0,29.71,West,269,7.0,9.0,63,0.00,,CLR,0.37,VWS V14.01,2013-06-28 00:09:00,
2013-06-27 20:14:00,82.7,68.8,29.72,WSW,255,3.0,6.0,63,0.00,,CLR,0.37,VWS V14.01,2013-06-28 00:14:00,
2013-06-27 20:19:00,82.6,69.2,29.71,NNW,328,5.0,7.0,64,0.00,,CLR,0.37,VWS V14.01,2013-06-28 00:19:00,
2013-06-27 20:24:00,82.3,68.9,29.71,WNW,293,8.0,8.0,64,0.00,,CLR,0.37,VWS V14.01,2013-06-28 00:24:00,
2013-06-27 20:29:00,82.0,69.5,29.71,WNW,290,8.0,9.0,66,0.00,,CLR,0.37,VWS V14.01,2013-06-28 00:29:00,
2013-06-27 20:35:00,81.6,69.2,29.71,West,259,7.0,7.0,66,0.00,,CLR,0.37,VWS V14.01,2013-06-28 00:35:00,
2013-06-27 20:40:00,81.3,69.3,29.71,WNW,286,3.0,5.0,67,0.00,,CLR,0.37,VWS V14.01,2013-06-28 00:40:00,
2013-06-27 20:45:00,81.0,69.4,29.71,WNW,293,3.0,5.0,68,0.00,,CLR,0.37,VWS V14.01,2013-06-28 00:45:00,
2013-06-27 20:51:00,80.7,69.6,29.71,West,276,2.0,4.0,69,0.00,,CLR,0.37,VWS V14.01,2013-06-28 00:51:00,
2013-06-27 20:56:00,80.5,69.4,29.71,WNW,290,3.0,3.0,69,0.00,,CLR,0.37,VWS V14.01,2013-06-28 00:56:00,
2013-06-27 21:01:00,80.2,69.5,29.71,WSW,252,1.0,2.0,70,0.00,,CLR,0.37,VWS V14.01,2013-06-28 01:01:00,
2013-06-27 21:06:00,80.0,69.8,29.71,West,271,1.0,3.0,71,0.00,,CLR,0.37,VWS V14.01,2013-06-28 01:06:00,
2013-06-27 21:11:00,79.7,69.5,29.72,West,278,2.0,4.0,71,0.00,,CLR,0.37,VWS V14.01,2013-06-28 01:11:00,
2013-06-27 21:16:00,79.6,69.4,29.72,WNW,284,1.0,4.0,71,0.00,,CLR,0.37,VWS V14.01,2013-06-28 01:16:00,
2013-06-27 21:21:00,79.5,69.3,29.71,West,262,2.0,4.0,71,0.00,,CLR,0.37,VWS V14.01,2013-06-28 01:21:00,
2013-06-27 21:26:00,79.2,69.4,29.72,SW,233,1.0,4.0,72,0.00,,CLR,0.37,VWS V14.01,2013-06-28 01:26:00,
2013-06-27 21:31:00,78.9,69.5,29.72,WSW,241,0.0,2.0,73,0.00,,CLR,0.37,VWS V14.01,2013-06-28 01:31:00,
2013-06-27 21:36:00,78.7,69.7,29.72,WSW,243,0.0,1.0,74,0.00,,CLR,0.37,VWS V14.01,2013-06-28 01:36:00,
2013-06-27 21:41:00,78.5,69.5,29.72,West,263,3.0,4.0,74,0.00,,CLR,0.37,VWS V14.01,2013-06-28 01:41:00,
2013-06-27 21:46:00,78.6,69.2,29.72,West,270,5.0,6.0,73,0.00,,CLR,0.37,VWS V14.01,2013-06-28 01:46:00,
2013-06-27 21:51:00,78.7,68.9,29.72,West,270,3.0,3.0,72,0.00,,CLR,0.37,VWS V14.01,2013-06-28 01:51:00,
2013-06-27 21:56:00,78.8,69.0,29.72,WNW,290,4.0,7.0,72,0.00,,CLR,0.37,VWS V14.01,2013-06-28 01:56:00,
2013-06-27 22:01:00,78.8,69.0,29.72,West,270,3.0,3.0,72,0.00,,SCT055,0.37,VWS V14.01,2013-06-28 02:01:00,
2013-06-27 22:07:00,78.7,68.9,29.71,WSW,245,1.0,2.0,72,0.00,,SCT055,0.37,VWS V14.01,2013-06-28 02:07:00,
2013-06-27 22:12:00,78.4,69.4,29.71,WSW,250,1.0,4.0,74,0.00,,SCT055,0.37,VWS V14.01,2013-06-28 02:12:00,
2013-06-27 22:17:00,77.9,69.3,29.71,WSW,250,2.0,3.0,75,0.00,,SCT055,0.37,VWS V14.01,2013-06-28 02:17:00,
2013-06-27 22:22:00,77.7,69.5,29.71,WSW,246,2.0,4.0,76,0.00,,SCT055,0.37,VWS V14.01,2013-06-28 02:22:00,
2013-06-27 22:27:00,77.4,69.6,29.71,WSW,246,1.0,2.0,77,0.00,,SCT055,0.37,VWS V14.01,2013-06-28 02:27:00,
2013-06-27 22:32:00,77.2,69.4,29.71,WSW,250,1.0,1.0,77,0.00,,CLR,0.37,VWS V14.01,2013-06-28 02:32:00,
2013-06-27 22:37:00,77.1,69.3,29.71,SW,233,3.0,4.0,77,0.00,,CLR,0.37,VWS V14.01,2013-06-28 02:37:00,
2013-06-27 22:42:00,77.2,69.4,29.71,West,260,3.0,3.0,77,0.00,,CLR,0.37,VWS V14.01,2013-06-28 02:42:00,
2013-06-27 22:47:00,77.1,69.3,29.71,WSW,250,1.0,2.0,77,0.00,,CLR,0.37,VWS V14.01,2013-06-28 02:47:00,
2013-06-27 22:52:00,77.0,69.2,29.70,WSW,251,0.0,0.0,77,0.00,,CLR,0.37,VWS V14.01,2013-06-28 02:52:00,
2013-06-27 22:57:00,76.8,69.1,29.71,WSW,251,0.0,1.0,77,0.00,,CLR,0.37,VWS V14.01,2013-06-28 02:57:00,
2013-06-27 23:02:00,76.6,69.2,29.71,WSW,250,0.0,0.0,78,0.00,,CLR,0.37,VWS V14.01,2013-06-28 03:02:00,
2013-06-27 23:07:00,76.4,69.0,29.70,WSW,248,0.0,0.0,78,0.00,,CLR,0.37,VWS V14.01,2013-06-28 03:07:00,
2013-06-27 23:13:00,76.2,68.8,29.70,SW,221,1.0,1.0,78,0.00,,CLR,0.37,VWS V14.01,2013-06-28 03:13:00,
2013-06-27 23:18:00,75.9,68.9,29.70,SW,215,1.0,1.0,79,0.00,,CLR,0.37,VWS V14.01,2013-06-28 03:18:00,
2013-06-27 23:23:00,75.8,68.8,29.70,WSW,239,0.0,1.0,79,0.00,,CLR,0.37,VWS V14.01,2013-06-28 03:23:00,
2013-06-27 23:28:00,75.7,68.7,29.69,WSW,255,0.0,0.0,79,0.00,,CLR,0.37,VWS V14.01,2013-06-28 03:28:00,
2013-06-27 23:33:00,75.7,68.7,29.69,SW,228,0.0,2.0,79,0.00,,CLR,0.37,VWS V14.01,2013-06-28 03:33:00,
2013-06-27 23:38:00,75.7,68.7,29.69,SSW,212,1.0,1.0,79,0.00,,CLR,0.37,VWS V14.01,2013-06-28 03:38:00,
2013-06-27 23:44:00,75.5,68.9,29.69,SSW,211,1.0,3.0,80,0.00,,CLR,0.37,VWS V14.01,2013-06-28 03:44:00,
2013-06-27 23:49:00,75.3,69.1,29.68,SE,139,1.0,3.0,81,0.00,,CLR,0.37,VWS V14.01,2013-06-28 03:49:00,
2013-06-27 23:55:00,75.1,69.2,29.68,SSW,193,2.0,3.0,82,0.00,,CLR,0.37,VWS V14.01,2013-06-28 03:55:00,